Hauptseite
METAR-TAF:

METAR-TAF

Flughäfen :

Flughafen Bornholm

Rønne, Dänemark

Breite: 55-04N, Länge: 014-45E, Höhe: 16 m

Beobachtung

Neuester Wetterbericht von vor 32 Minuten, um 08:20 UTC
Wind 8 kt aus West
Temperatur 17°C
Luftfeuchtigkeit 88%
Luftdruck 1015 hPa
Sichtweite 10 km oder mehr

METAR: EKRN 180820Z AUTO 27008KT 9999 NCD 17/15 Q1015

Zeit: 10:52 (08:52 UTC)

Prognose

Neuester Wetterbericht von vor 44 Minuten, um 08:08 UTC
Gültige Prognose vom 18 um 09 UTC bis 18 um 18 UTC
Wind 6 kt aus West/Südwest
Sichtweite 10 km oder mehr
Aufgelockert bewölkt in der Höhe von 4000 ft

TAF: EKRN 180808Z 1809/1818 24006KT 9999 SCT040

Wetterbeobachtungen und Prognosen von mehr als 4000 Flughäfen (METAR und TAF Bericht).

Die verfügbaren Stationen werden durch gelbe und rote Markierungen auf der Karte dargestellt.

Führen Sie die Maus auf sie, um den Namen der Station zu sehen.

Darauf klicken, um die Beobachtung von Wetterbeobachtungen und Prognosen zu sehen.

Um die Karte zu ändern : klicken Sie auf den grünen Tasten mit einem schwarzen Kreuz Zum Vergrößern, auf den grünen Button mit einem Gedankenstrich zu verkleinern, oder auf die grünen Pfeile für benachbarte Karten.


METAR-TAF: